Time;durP1;ratioP1;P1;durP2;ratioP2;P2;SDS_P1;SDS_P2;PMS_P1;PMS_P2;Temp;Humidity;BMP_temperature;BMP_pressure;BME280_temperature;BME280_humidity;BME280_pressure;Samples;Min_cycle;Max_cycle;Signal;HPM_P1;HPM_P2
2024/04/16 00:03:54;;;;;;;;;;;7.90;99.90;;;;;;22568263;26;19928;-78
2024/04/16 00:13:54;;;;;;;;;;;7.50;99.90;;;;;;22654162;26;19935;-78
2024/04/16 00:24:07;;;;;;;;;;;7.20;99.90;;;;;;22654750;26;19928;-78
2024/04/16 00:34:08;;;;;;;;;;;7.00;99.90;;;;;;22679569;26;19956;-77
2024/04/16 00:44:09;;;;;;;;;;;6.70;99.90;;;;;;22653519;26;19939;-77
2024/04/16 00:54:10;;;;;;;;;;;6.50;99.90;;;;;;22703545;26;19927;-78
2024/04/16 01:04:10;;;;;;;;;;;6.20;99.90;;;;;;22675887;26;20382;-78
2024/04/16 01:14:11;;;;;;;;;;;6.00;99.90;;;;;;22654718;26;20001;-76
2024/04/16 01:24:12;;;;;;;;;;;5.80;99.90;;;;;;22681432;26;19928;-77
2024/04/16 01:34:12;;;;;;;;;;;5.50;99.90;;;;;;22713060;26;20405;-77
2024/04/16 01:44:13;;;;;;;;;;;5.40;99.90;;;;;;22718676;26;20266;-76
2024/04/16 01:54:13;;;;;;;;;;;5.20;99.90;;;;;;22711015;26;19928;-77
2024/04/16 02:04:14;;;;;;;;;;;5.10;99.90;;;;;;22714317;26;19928;-77
2024/04/16 02:14:15;;;;;;;;;;;5.20;99.90;;;;;;22711956;26;20028;-77
2024/04/16 02:24:15;;;;;;;;;;;5.10;99.90;;;;;;22712923;26;19944;-77
2024/04/16 02:34:16;;;;;;;;;;;5.00;99.90;;;;;;22701412;26;20435;-78
2024/04/16 02:44:17;;;;;;;;;;;4.90;99.90;;;;;;22713813;26;19935;-77
2024/04/16 02:54:18;;;;;;;;;;;4.90;99.90;;;;;;22708012;26;19928;-78
2024/04/16 03:04:20;;;;;;;;;;;4.80;99.90;;;;;;22693601;26;20473;-77
2024/04/16 03:14:21;;;;;;;;;;;4.70;99.90;;;;;;22680907;26;19928;-77
2024/04/16 03:24:21;;;;;;;;;;;4.70;99.90;;;;;;22654458;26;20263;-77
2024/04/16 03:34:22;;;;;;;;;;;4.80;99.90;;;;;;22593769;26;19967;-77
2024/04/16 03:44:23;;;;;;;;;;;4.90;99.90;;;;;;22637093;26;20266;-77
2024/04/16 03:54:23;;;;;;;;;;;4.70;99.90;;;;;;22627657;26;19928;-77
2024/04/16 04:04:24;;;;;;;;;;;4.70;99.90;;;;;;22638691;26;20394;-77
2024/04/16 04:14:24;;;;;;;;;;;4.60;99.90;;;;;;22691745;26;19934;-76
2024/04/16 04:24:25;;;;;;;;;;;4.60;99.90;;;;;;22703204;26;19928;-77
2024/04/16 04:34:26;;;;;;;;;;;4.50;99.90;;;;;;22723977;26;19996;-76
2024/04/16 04:44:27;;;;;;;;;;;4.50;99.90;;;;;;22719818;26;19939;-77
2024/04/16 04:54:27;;;;;;;;;;;4.40;99.90;;;;;;22633822;26;19928;-76
2024/04/16 05:04:31;;;;;;;;;;;4.50;99.90;;;;;;22575413;26;19936;-74
2024/04/16 05:14:31;;;;;;;;;;;4.40;99.90;;;;;;22649725;26;19975;-74
2024/04/16 05:24:32;;;;;;;;;;;4.40;99.90;;;;;;22658460;26;20368;-77
2024/04/16 05:34:32;;;;;;;;;;;4.50;99.90;;;;;;22649066;26;20026;-76
2024/04/16 05:44:34;;;;;;;;;;;4.50;99.90;;;;;;22654075;26;19940;-76
2024/04/16 05:54:34;;;;;;;;;;;4.70;99.90;;;;;;22649063;26;19935;-74
2024/04/16 06:04:35;;;;;;;;;;;4.80;99.90;;;;;;22647797;26;19928;-76
2024/04/16 06:14:36;;;;;;;;;;;4.90;99.90;;;;;;22645132;26;20359;-75
2024/04/16 06:24:36;;;;;;;;;;;5.20;99.90;;;;;;22653235;26;19927;-75
2024/04/16 06:34:37;;;;;;;;;;;5.20;99.90;;;;;;22703705;26;19936;-75
2024/04/16 06:44:38;;;;;;;;;;;5.30;99.90;;;;;;22708601;26;19942;-78
2024/04/16 06:54:38;;;;;;;;;;;5.50;99.90;;;;;;22704704;26;19928;-76
2024/04/16 07:04:39;;;;;;;;;;;5.50;99.90;;;;;;22707096;26;20256;-77
2024/04/16 07:14:40;;;;;;;;;;;5.60;99.90;;;;;;22707529;26;19964;-76
2024/04/16 07:24:40;;;;;;;;;;;6.10;99.90;;;;;;22706286;26;19940;-76
2024/04/16 07:34:41;;;;;;;;;;;6.00;99.90;;;;;;22703022;26;19965;-76
2024/04/16 07:44:42;;;;;;;;;;;6.10;99.90;;;;;;22725913;26;19939;-76
2024/04/16 07:54:42;;;;;;;;;;;6.70;99.90;;;;;;22738786;26;20331;-76
2024/04/16 08:04:43;;;;;;;;;;;7.00;99.90;;;;;;22734582;26;20259;-77
2024/04/16 08:14:44;;;;;;;;;;;8.20;99.90;;;;;;22732252;26;19935;-74
2024/04/16 08:24:45;;;;;;;;;;;8.10;99.90;;;;;;22734482;26;19938;-76
2024/04/16 08:34:45;;;;;;;;;;;8.00;99.90;;;;;;22734831;26;20359;-77
2024/04/16 08:44:46;;;;;;;;;;;8.10;99.90;;;;;;22732113;26;19928;-77
2024/04/16 08:54:47;;;;;;;;;;;8.90;99.90;;;;;;22724932;26;19928;-77
2024/04/16 09:04:49;;;;;;;;;;;8.30;99.90;;;;;;22728355;26;19939;-76
2024/04/16 09:14:50;;;;;;;;;;;8.30;99.90;;;;;;22713098;26;19928;-76
2024/04/16 09:24:50;;;;;;;;;;;9.70;99.90;;;;;;22726273;26;19934;-78
2024/04/16 09:34:51;;;;;;;;;;;9.90;99.90;;;;;;22729152;26;19996;-77
2024/04/16 09:44:52;;;;;;;;;;;9.70;99.90;;;;;;22645762;26;19994;-77
2024/04/16 09:54:54;;;;;;;;;;;9.70;99.90;;;;;;22568003;26;19928;-76
2024/04/16 10:04:56;;;;;;;;;;;10.30;99.90;;;;;;22715307;26;19946;-76
2024/04/16 10:14:57;;;;;;;;;;;9.70;99.90;;;;;;22691186;26;19928;-76
2024/04/16 10:24:59;;;;;;;;;;;9.50;99.90;;;;;;22565334;26;19935;-76
2024/04/16 10:35:00;;;;;;;;;;;10.60;99.90;;;;;;22565081;26;19932;-75
2024/04/16 10:45:01;;;;;;;;;;;9.80;99.90;;;;;;22564524;26;19943;-76
2024/04/16 10:55:02;;;;;;;;;;;9.40;99.90;;;;;;22563784;26;20004;-76
2024/04/16 11:05:04;;;;;;;;;;;9.30;99.90;;;;;;22563601;26;19936;-75
2024/04/16 11:15:05;;;;;;;;;;;9.40;99.90;;;;;;22586631;26;20374;-75
2024/04/16 11:25:13;;;;;;;;;;;9.50;99.90;;;;;;22606398;26;19944;-75
2024/04/16 11:35:14;;;;;;;;;;;9.00;99.90;;;;;;22561501;26;19998;-74
2024/04/16 11:45:18;;;;;;;;;;;9.10;99.90;;;;;;22563046;26;20378;-75
2024/04/16 11:55:18;;;;;;;;;;;10.20;99.90;;;;;;22710695;26;19934;-75
2024/04/16 12:05:19;;;;;;;;;;;11.40;99.90;;;;;;22707214;26;19940;-75
2024/04/16 12:15:19;;;;;;;;;;;10.60;99.90;;;;;;22709159;26;19942;-75
2024/04/16 12:25:20;;;;;;;;;;;10.60;99.90;;;;;;22661808;26;19959;-76
2024/04/16 12:35:21;;;;;;;;;;;11.10;99.90;;;;;;22721356;26;19928;-75
2024/04/16 12:45:21;;;;;;;;;;;10.10;99.90;;;;;;22728423;26;19934;-75
2024/04/16 12:55:22;;;;;;;;;;;10.20;99.90;;;;;;22702208;26;20367;-75
2024/04/16 13:05:23;;;;;;;;;;;10.00;99.90;;;;;;22706926;26;19928;-78
2024/04/16 13:15:23;;;;;;;;;;;9.30;99.90;;;;;;22652531;26;19952;-76
2024/04/16 13:25:24;;;;;;;;;;;10.80;99.90;;;;;;22694264;26;19928;-77
2024/04/16 13:35:25;;;;;;;;;;;10.80;99.90;;;;;;22676634;26;20446;-75
2024/04/16 13:45:25;;;;;;;;;;;11.60;99.90;;;;;;22568463;26;20007;-75
2024/04/16 13:55:26;;;;;;;;;;;11.00;99.90;;;;;;22619814;26;20004;-76
2024/04/16 14:05:26;;;;;;;;;;;10.40;99.90;;;;;;22717833;26;19996;-76
2024/04/16 14:15:27;;;;;;;;;;;9.00;99.90;;;;;;22715703;26;20371;-76
2024/04/16 14:25:28;;;;;;;;;;;10.00;99.90;;;;;;22685140;26;19935;-75
2024/04/16 14:35:29;;;;;;;;;;;10.50;99.90;;;;;;22607258;26;19943;-76
2024/04/16 14:45:29;;;;;;;;;;;11.10;99.90;;;;;;22708318;26;20363;-76
2024/04/16 14:55:31;;;;;;;;;;;11.30;99.90;;;;;;22696102;26;20375;-76
2024/04/16 15:05:32;;;;;;;;;;;11.80;99.90;;;;;;22721309;26;19944;-76
2024/04/16 15:15:33;;;;;;;;;;;11.20;99.90;;;;;;22710838;26;19999;-76
2024/04/16 15:25:34;;;;;;;;;;;11.40;99.90;;;;;;22706867;26;20345;-75
2024/04/16 15:35:45;;;;;;;;;;;11.20;99.90;;;;;;22709853;26;19932;-75
2024/04/16 15:45:46;;;;;;;;;;;10.70;99.90;;;;;;22694929;26;19928;-74
2024/04/16 15:55:46;;;;;;;;;;;10.30;99.90;;;;;;22641867;26;20364;-76
2024/04/16 16:05:48;;;;;;;;;;;9.60;99.90;;;;;;22668127;26;19940;-76
2024/04/16 16:15:49;;;;;;;;;;;8.00;99.90;;;;;;22723912;26;19928;-75
2024/04/16 16:25:50;;;;;;;;;;;7.70;99.90;;;;;;22636730;26;19996;-76
2024/04/16 16:35:50;;;;;;;;;;;8.10;99.90;;;;;;22723300;26;19928;-75
2024/04/16 16:45:51;;;;;;;;;;;8.70;99.90;;;;;;22704578;26;19928;-76
2024/04/16 16:55:52;;;;;;;;;;;8.70;99.90;;;;;;22681193;26;20363;-76
2024/04/16 17:05:53;;;;;;;;;;;8.40;99.90;;;;;;22572363;26;19936;-76
2024/04/16 17:15:53;;;;;;;;;;;8.20;99.90;;;;;;22690925;26;19928;-75
2024/04/16 17:25:55;;;;;;;;;;;7.60;99.90;;;;;;22591596;26;19936;-76
2024/04/16 17:35:55;;;;;;;;;;;7.10;99.90;;;;;;22639215;26;19937;-77
2024/04/16 17:45:56;;;;;;;;;;;6.90;99.90;;;;;;22695764;26;19937;-75
2024/04/16 17:56:05;;;;;;;;;;;6.60;99.90;;;;;;22710988;26;19928;-74
2024/04/16 18:06:07;;;;;;;;;;;6.00;99.90;;;;;;22717173;26;19961;-78
2024/04/16 18:16:07;;;;;;;;;;;5.70;99.90;;;;;;22720850;26;19935;-77
2024/04/16 18:26:08;;;;;;;;;;;5.80;99.90;;;;;;22720888;26;20256;-77
2024/04/16 18:36:09;;;;;;;;;;;5.60;99.90;;;;;;22697693;26;20446;-78
2024/04/16 18:46:11;;;;;;;;;;;5.60;99.90;;;;;;22709760;26;19997;-77
2024/04/16 18:56:13;;;;;;;;;;;5.50;99.90;;;;;;22712484;26;20330;-75
2024/04/16 19:06:14;;;;;;;;;;;5.60;99.90;;;;;;22720562;26;19928;-77
2024/04/16 19:16:15;;;;;;;;;;;5.50;99.90;;;;;;22711996;26;19928;-77
2024/04/16 19:26:16;;;;;;;;;;;5.50;99.90;;;;;;22710692;26;19939;-77
2024/04/16 19:36:16;;;;;;;;;;;5.50;99.90;;;;;;22692180;26;19928;-77
2024/04/16 19:46:17;;;;;;;;;;;5.50;99.90;;;;;;22640941;26;20611;-77
2024/04/16 19:56:18;;;;;;;;;;;5.50;99.90;;;;;;22637374;26;19940;-77
2024/04/16 20:06:19;;;;;;;;;;;5.50;99.90;;;;;;22633364;26;19968;-77
2024/04/16 20:16:20;;;;;;;;;;;5.60;99.90;;;;;;22635811;26;20004;-77
2024/04/16 20:26:20;;;;;;;;;;;5.60;99.90;;;;;;22653012;26;19948;-76
2024/04/16 20:36:21;;;;;;;;;;;5.70;99.90;;;;;;22639542;26;19929;-76
2024/04/16 20:46:21;;;;;;;;;;;5.70;99.90;;;;;;22639859;26;19928;-77
2024/04/16 20:56:22;;;;;;;;;;;5.70;99.90;;;;;;22654569;26;19928;-76
2024/04/16 21:06:23;;;;;;;;;;;5.70;99.90;;;;;;22665038;26;19929;-77
2024/04/16 21:16:23;;;;;;;;;;;5.60;99.90;;;;;;22653511;26;20006;-77
2024/04/16 21:26:24;;;;;;;;;;;5.60;99.90;;;;;;22700539;26;19936;-76
2024/04/16 21:36:25;;;;;;;;;;;5.60;99.90;;;;;;22710898;26;19928;-76
2024/04/16 21:46:26;;;;;;;;;;;5.60;99.90;;;;;;22712328;26;20006;-77
2024/04/16 21:56:30;;;;;;;;;;;5.60;99.90;;;;;;22710264;26;19934;-77
2024/04/16 22:06:31;;;;;;;;;;;5.50;99.90;;;;;;22708772;26;19963;-77
2024/04/16 22:16:32;;;;;;;;;;;5.40;99.90;;;;;;22709118;26;19944;-76
2024/04/16 22:26:33;;;;;;;;;;;5.40;99.90;;;;;;22708650;26;19935;-77
2024/04/16 22:36:36;;;;;;;;;;;5.40;99.90;;;;;;22707602;26;20248;-77
2024/04/16 22:46:37;;;;;;;;;;;5.40;99.90;;;;;;22711146;26;20298;-77
2024/04/16 22:56:38;;;;;;;;;;;5.50;99.90;;;;;;22707176;26;19932;-77
2024/04/16 23:06:38;;;;;;;;;;;5.50;99.90;;;;;;22707602;26;19936;-77
2024/04/16 23:16:39;;;;;;;;;;;5.40;99.90;;;;;;22706166;26;19936;-77
2024/04/16 23:26:40;;;;;;;;;;;5.30;99.90;;;;;;22706685;26;19936;-77
2024/04/16 23:36:40;;;;;;;;;;;5.30;99.90;;;;;;22709244;26;19942;-77
2024/04/16 23:46:41;;;;;;;;;;;5.30;99.90;;;;;;22713297;26;19993;-76
2024/04/16 23:56:42;;;;;;;;;;;5.30;99.90;;;;;;22703838;26;20272;-76
